Time;durP1;ratioP1;P1;durP2;ratioP2;P2;SDS_P1;SDS_P2;PMS_P1;PMS_P2;Temp;Humidity;BMP_temperature;BMP_pressure;BME280_temperature;BME280_humidity;BME280_pressure;Samples;Min_cycle;Max_cycle;Signal;HPM_P1;HPM_P2
2021/01/11 00:00:20;;;;;;;31.00;15.83;;;;;;;;;;5110022;27;21185;-69
2021/01/11 00:02:47;;;;;;;32.10;15.90;;;;;;;;;;5114962;27;20532;-69
2021/01/11 00:05:14;;;;;;;35.07;16.50;;;;;;;;;;5105555;28;20455;-69
2021/01/11 00:07:41;;;;;;;34.43;16.53;;;;;;;;;;5104459;28;20480;-69
2021/01/11 00:10:08;;;;;;;32.63;15.57;;;;;;;;;;5111139;27;20447;-67
2021/01/11 00:12:39;;;;;;;30.63;16.90;;;;;;;;;;5099395;28;20482;-69
2021/01/11 00:15:08;;;;;;;40.07;17.80;;;;;;;;;;5102185;28;20899;-69
2021/01/11 00:17:34;;;;;;;35.33;18.90;;;;;;;;;;5109856;28;20529;-69
2021/01/11 00:20:01;;;;;;;37.00;16.93;;;;;;;;;;5112412;28;20439;-69
2021/01/11 00:22:28;;;;;;;36.13;16.80;;;;;;;;;;5113939;28;20458;-68
2021/01/11 00:24:54;;;;;;;34.73;17.03;;;;;;;;;;5105809;28;20439;-69
2021/01/11 00:27:21;;;;;;;32.70;16.50;;;;;;;;;;5111603;28;20457;-68
2021/01/11 00:29:48;;;;;;;35.10;15.83;;;;;;;;;;5101334;28;20458;-69
2021/01/11 00:32:15;;;;;;;33.80;17.10;;;;;;;;;;5091239;28;20467;-69
2021/01/11 00:34:42;;;;;;;34.10;17.20;;;;;;;;;;5102834;28;20459;-68
2021/01/11 00:37:08;;;;;;;36.67;18.13;;;;;;;;;;5106256;28;20454;-69
2021/01/11 00:39:35;;;;;;;33.33;17.17;;;;;;;;;;5106875;28;20474;-69
2021/01/11 00:42:02;;;;;;;37.30;17.23;;;;;;;;;;5107418;28;20445;-69
2021/01/11 00:44:29;;;;;;;41.30;17.57;;;;;;;;;;5116253;28;20450;-69
2021/01/11 00:46:59;;;;;;;37.03;17.30;;;;;;;;;;5115767;28;20458;-69
2021/01/11 00:49:26;;;;;;;39.77;18.97;;;;;;;;;;5105953;28;20553;-69
2021/01/11 00:51:53;;;;;;;41.53;18.17;;;;;;;;;;5103888;28;20940;-69
2021/01/11 00:54:19;;;;;;;34.50;16.70;;;;;;;;;;5105945;28;20447;-69
2021/01/11 00:56:46;;;;;;;38.03;17.50;;;;;;;;;;5098566;28;21110;-69
2021/01/11 00:59:13;;;;;;;37.97;16.50;;;;;;;;;;5113323;27;20470;-68
2021/01/11 01:01:47;;;;;;;35.93;16.83;;;;;;;;;;5101468;28;20459;-68
2021/01/11 01:04:13;;;;;;;29.90;17.30;;;;;;;;;;5103324;28;20439;-69
2021/01/11 01:06:41;;;;;;;36.20;18.67;;;;;;;;;;5107136;28;20859;-69
2021/01/11 01:09:07;;;;;;;37.83;18.13;;;;;;;;;;5104130;28;21330;-68
2021/01/11 01:11:36;;;;;;;39.33;17.30;;;;;;;;;;5106220;28;20447;-69
2021/01/11 01:14:03;;;;;;;35.10;17.30;;;;;;;;;;5102370;28;20459;-68
2021/01/11 01:16:30;;;;;;;36.30;15.73;;;;;;;;;;5101916;28;20451;-69
2021/01/11 01:18:56;;;;;;;33.73;16.77;;;;;;;;;;5104880;28;20554;-68
2021/01/11 01:21:23;;;;;;;33.90;17.00;;;;;;;;;;5105483;28;20454;-68
2021/01/11 01:23:51;;;;;;;34.53;16.50;;;;;;;;;;5101402;27;21164;-69
2021/01/11 01:26:18;;;;;;;28.43;14.80;;;;;;;;;;5116191;27;20455;-69
2021/01/11 01:28:44;;;;;;;34.93;16.60;;;;;;;;;;5117702;27;20861;-69
2021/01/11 01:31:11;;;;;;;40.20;18.70;;;;;;;;;;5110349;27;20442;-69
2021/01/11 01:33:37;;;;;;;29.53;18.47;;;;;;;;;;5097332;28;20459;-69
2021/01/11 01:36:04;;;;;;;44.17;17.37;;;;;;;;;;5115314;27;20501;-68
2021/01/11 01:38:31;;;;;;;33.50;17.37;;;;;;;;;;5118452;27;20463;-69
2021/01/11 01:40:58;;;;;;;39.13;20.43;;;;;;;;;;5104111;28;20452;-68
2021/01/11 01:43:25;;;;;;;43.77;18.73;;;;;;;;;;5109589;27;20808;-68
2021/01/11 01:45:51;;;;;;;34.53;18.37;;;;;;;;;;5112233;27;20479;-69
2021/01/11 01:48:18;;;;;;;37.53;18.07;;;;;;;;;;5110331;28;20499;-69
2021/01/11 01:50:45;;;;;;;41.57;19.63;;;;;;;;;;5109790;27;20443;-69
2021/01/11 01:53:12;;;;;;;43.07;19.73;;;;;;;;;;5106903;27;20466;-69
2021/01/11 01:55:38;;;;;;;41.03;19.23;;;;;;;;;;5106662;28;20447;-69
2021/01/11 01:58:09;;;;;;;36.03;19.50;;;;;;;;;;5102075;28;20528;-69
2021/01/11 02:00:36;;;;;;;37.00;18.30;;;;;;;;;;5109143;27;20448;-68
2021/01/11 02:03:03;;;;;;;34.40;18.60;;;;;;;;;;5111452;27;20474;-68
2021/01/11 02:05:29;;;;;;;35.63;18.50;;;;;;;;;;5112630;27;20466;-69
2021/01/11 02:08:03;;;;;;;50.40;19.10;;;;;;;;;;5122309;27;20597;-69
2021/01/11 02:10:34;;;;;;;41.03;18.60;;;;;;;;;;5117083;27;20496;-69
2021/01/11 02:13:05;;;;;;;42.03;19.00;;;;;;;;;;5110300;27;20439;-69
2021/01/11 02:15:38;;;;;;;37.53;16.77;;;;;;;;;;5111553;27;20877;-68
2021/01/11 02:18:08;;;;;;;37.90;17.10;;;;;;;;;;5109534;27;20747;-69
2021/01/11 02:20:58;;;;;;;37.37;17.93;;;;;;;;;;5101832;28;20448;-69
2021/01/11 02:23:43;;;;;;;34.90;18.90;;;;;;;;;;5070285;28;20876;-69
2021/01/11 02:26:15;;;;;;;45.37;21.40;;;;;;;;;;5112440;27;20439;-69
2021/01/11 02:28:52;;;;;;;34.90;18.90;;;;;;;;;;5106940;28;20543;-68
2021/01/11 02:31:21;;;;;;;47.40;20.40;;;;;;;;;;5112885;27;21204;-69
2021/01/11 02:33:48;;;;;;;47.97;19.90;;;;;;;;;;5101711;28;20449;-69
2021/01/11 02:36:14;;;;;;;39.03;18.10;;;;;;;;;;5110965;27;20508;-68
2021/01/11 02:38:42;;;;;;;45.97;21.67;;;;;;;;;;5106080;27;20479;-69
2021/01/11 02:41:08;;;;;;;48.50;22.80;;;;;;;;;;5108420;27;20496;-69
2021/01/11 02:43:35;;;;;;;43.03;19.97;;;;;;;;;;5108062;27;20480;-69
2021/01/11 02:46:01;;;;;;;67.23;27.50;;;;;;;;;;5105308;28;20451;-69
2021/01/11 02:48:34;;;;;;;44.67;21.00;;;;;;;;;;5104978;27;20598;-69
2021/01/11 02:51:05;;;;;;;43.80;20.70;;;;;;;;;;5108174;27;20443;-68
2021/01/11 02:53:43;;;;;;;62.80;23.10;;;;;;;;;;5100210;28;20459;-69
2021/01/11 02:56:11;;;;;;;35.33;17.60;;;;;;;;;;5098071;27;20462;-68
2021/01/11 02:58:45;;;;;;;41.77;18.70;;;;;;;;;;5111536;27;20828;-69
2021/01/11 03:01:12;;;;;;;39.87;18.63;;;;;;;;;;5109686;27;20976;-68
2021/01/11 03:03:40;;;;;;;37.37;18.53;;;;;;;;;;5108678;27;20458;-69
2021/01/11 03:06:07;;;;;;;35.60;16.33;;;;;;;;;;5107217;28;20455;-69
2021/01/11 03:08:33;;;;;;;50.07;21.73;;;;;;;;;;5108140;27;20559;-68
2021/01/11 03:11:00;;;;;;;45.37;19.17;;;;;;;;;;5106136;27;20487;-68
2021/01/11 03:13:27;;;;;;;38.50;18.87;;;;;;;;;;5100944;28;20981;-69
2021/01/11 03:15:53;;;;;;;38.03;19.53;;;;;;;;;;5107989;27;20443;-68
2021/01/11 03:18:20;;;;;;;38.67;20.27;;;;;;;;;;5107080;27;20482;-69
2021/01/11 03:20:47;;;;;;;44.53;20.20;;;;;;;;;;5112051;27;20447;-68
2021/01/11 03:23:14;;;;;;;33.07;17.67;;;;;;;;;;5110505;27;20451;-69
2021/01/11 03:25:41;;;;;;;51.73;21.40;;;;;;;;;;5105274;28;20447;-69
2021/01/11 03:28:07;;;;;;;43.13;20.30;;;;;;;;;;5102482;27;20559;-69
2021/01/11 03:30:34;;;;;;;35.50;17.40;;;;;;;;;;5104850;28;20448;-69
2021/01/11 03:33:01;;;;;;;48.77;20.57;;;;;;;;;;5106729;27;20462;-69
2021/01/11 03:35:28;;;;;;;40.63;16.77;;;;;;;;;;5102483;28;20475;-68
2021/01/11 03:37:56;;;;;;;43.87;20.97;;;;;;;;;;5112013;27;20584;-69
2021/01/11 03:40:22;;;;;;;47.33;20.07;;;;;;;;;;5107780;27;20469;-69
2021/01/11 03:42:49;;;;;;;39.17;17.60;;;;;;;;;;5104856;27;20451;-69
2021/01/11 03:45:15;;;;;;;36.97;18.67;;;;;;;;;;5103266;27;20939;-69
2021/01/11 03:47:42;;;;;;;35.00;15.93;;;;;;;;;;5100897;27;20464;-69
2021/01/11 03:50:09;;;;;;;32.30;15.87;;;;;;;;;;5103762;28;20825;-69
2021/01/11 03:52:36;;;;;;;34.00;16.83;;;;;;;;;;5105215;28;20462;-68
2021/01/11 03:55:03;;;;;;;38.67;17.60;;;;;;;;;;5106143;27;20447;-68
2021/01/11 03:57:30;;;;;;;42.33;17.80;;;;;;;;;;5111191;27;20463;-68
2021/01/11 03:59:57;;;;;;;34.10;16.07;;;;;;;;;;5099189;27;20492;-69
2021/01/11 04:02:24;;;;;;;35.37;17.50;;;;;;;;;;5110877;27;20447;-69
2021/01/11 04:04:50;;;;;;;36.67;17.50;;;;;;;;;;5102541;27;20503;-69
2021/01/11 04:07:17;;;;;;;41.90;18.30;;;;;;;;;;5111680;28;21026;-68
2021/01/11 04:09:43;;;;;;;36.93;16.60;;;;;;;;;;5113424;28;20483;-69
2021/01/11 04:12:11;;;;;;;35.67;16.77;;;;;;;;;;5108584;28;20459;-68
2021/01/11 04:14:38;;;;;;;42.60;16.90;;;;;;;;;;5108600;28;20883;-68
2021/01/11 04:17:04;;;;;;;42.60;17.47;;;;;;;;;;5102793;28;20443;-68
2021/01/11 04:19:31;;;;;;;34.33;15.37;;;;;;;;;;5108206;28;20479;-69
2021/01/11 04:21:57;;;;;;;40.47;16.23;;;;;;;;;;5111538;28;20439;-68
2021/01/11 04:24:24;;;;;;;34.43;17.40;;;;;;;;;;5112478;27;20812;-69
2021/01/11 04:26:50;;;;;;;38.80;17.50;;;;;;;;;;5109946;28;20451;-68
2021/01/11 04:29:18;;;;;;;34.97;16.57;;;;;;;;;;5108529;28;20478;-68
2021/01/11 04:31:47;;;;;;;35.87;17.60;;;;;;;;;;5099701;28;20460;-68
2021/01/11 04:34:13;;;;;;;40.63;16.93;;;;;;;;;;5099475;28;20458;-69
2021/01/11 04:36:41;;;;;;;37.77;17.97;;;;;;;;;;5106549;28;20459;-69
2021/01/11 04:39:08;;;;;;;35.20;16.87;;;;;;;;;;5108363;28;20455;-69
2021/01/11 04:41:35;;;;;;;35.53;16.07;;;;;;;;;;5111843;28;20443;-68
2021/01/11 04:44:03;;;;;;;29.93;16.20;;;;;;;;;;5103421;28;20462;-68
2021/01/11 04:46:31;;;;;;;29.83;15.67;;;;;;;;;;5111568;28;20496;-69
2021/01/11 04:48:58;;;;;;;35.50;17.23;;;;;;;;;;5106719;28;20486;-69
2021/01/11 04:51:25;;;;;;;29.90;16.27;;;;;;;;;;5114373;28;21016;-69
2021/01/11 04:53:53;;;;;;;30.67;15.67;;;;;;;;;;5103954;28;20467;-69
2021/01/11 04:56:20;;;;;;;31.23;16.80;;;;;;;;;;5109527;27;20459;-68
2021/01/11 04:58:56;;;;;;;24.30;13.90;;;;;;;;;;5108517;27;20475;-69
2021/01/11 05:01:24;;;;;;;33.00;16.10;;;;;;;;;;5110337;27;20457;-69
2021/01/11 05:03:52;;;;;;;31.00;16.17;;;;;;;;;;5107293;27;20458;-69
2021/01/11 05:06:19;;;;;;;42.60;15.60;;;;;;;;;;5111945;27;20447;-69
2021/01/11 05:08:46;;;;;;;35.33;16.40;;;;;;;;;;5111527;27;20491;-69
2021/01/11 05:11:12;;;;;;;27.47;14.20;;;;;;;;;;5112433;27;20455;-69
2021/01/11 05:13:39;;;;;;;37.70;16.80;;;;;;;;;;5108754;27;20508;-68
2021/01/11 05:16:13;;;;;;;31.63;15.40;;;;;;;;;;5109570;27;20452;-68
2021/01/11 05:18:40;;;;;;;33.30;15.53;;;;;;;;;;5112211;27;20469;-68
2021/01/11 05:21:07;;;;;;;32.50;16.57;;;;;;;;;;5110590;27;20454;-68
2021/01/11 05:23:38;;;;;;;32.70;15.10;;;;;;;;;;5109568;27;20486;-68
2021/01/11 05:26:14;;;;;;;31.77;14.40;;;;;;;;;;5118908;27;20462;-68
2021/01/11 05:28:41;;;;;;;33.17;16.80;;;;;;;;;;5109073;27;20486;-69
2021/01/11 05:31:08;;;;;;;27.17;14.23;;;;;;;;;;5105167;27;20459;-68
2021/01/11 05:33:35;;;;;;;35.10;14.90;;;;;;;;;;5103869;27;20455;-69
2021/01/11 05:36:06;;;;;;;43.90;16.47;;;;;;;;;;5108927;27;20537;-68
2021/01/11 05:38:35;;;;;;;31.23;15.23;;;;;;;;;;5107417;27;21151;-69
2021/01/11 05:41:13;;;;;;;41.50;17.77;;;;;;;;;;5106203;27;20459;-69
2021/01/11 05:43:39;;;;;;;32.93;16.60;;;;;;;;;;5099555;27;20455;-68
2021/01/11 05:46:21;;;;;;;29.80;15.40;;;;;;;;;;5107350;28;21254;-69
2021/01/11 05:48:56;;;;;;;33.73;16.47;;;;;;;;;;5103295;27;20537;-68
2021/01/11 05:51:23;;;;;;;33.93;17.40;;;;;;;;;;5105381;28;20450;-69
2021/01/11 05:53:54;;;;;;;30.57;15.67;;;;;;;;;;5105558;27;20832;-69
2021/01/11 05:56:20;;;;;;;32.40;14.33;;;;;;;;;;5106914;27;20462;-69
2021/01/11 05:59:08;;;;;;;34.17;15.57;;;;;;;;;;5107180;27;20464;-69
2021/01/11 06:01:35;;;;;;;29.87;15.53;;;;;;;;;;5104014;27;20451;-69
2021/01/11 06:04:02;;;;;;;31.43;15.10;;;;;;;;;;5107259;27;20458;-68
2021/01/11 06:06:28;;;;;;;34.30;16.83;;;;;;;;;;5101401;27;20481;-68
2021/01/11 06:08:56;;;;;;;34.60;16.30;;;;;;;;;;5108730;27;20474;-69
2021/01/11 06:11:25;;;;;;;32.03;17.27;;;;;;;;;;5107665;27;20516;-69
2021/01/11 06:13:52;;;;;;;35.20;15.97;;;;;;;;;;5108307;27;20549;-69
2021/01/11 06:16:18;;;;;;;38.07;18.50;;;;;;;;;;5108698;27;20451;-69
2021/01/11 06:18:46;;;;;;;33.70;16.37;;;;;;;;;;5106160;27;20475;-69
2021/01/11 06:21:12;;;;;;;39.70;14.50;;;;;;;;;;5109600;27;20443;-68
2021/01/11 06:23:39;;;;;;;40.10;17.83;;;;;;;;;;5103954;27;20623;-69
2021/01/11 06:26:24;;;;;;;34.90;16.33;;;;;;;;;;5108738;27;20443;-68
2021/01/11 06:28:52;;;;;;;31.50;15.87;;;;;;;;;;5109238;27;20475;-68
2021/01/11 06:31:19;;;;;;;34.37;16.90;;;;;;;;;;5116454;27;20458;-69
2021/01/11 06:33:46;;;;;;;36.40;16.73;;;;;;;;;;5098243;27;20463;-68
2021/01/11 06:36:19;;;;;;;33.13;16.37;;;;;;;;;;5107650;28;20451;-69
2021/01/11 06:38:47;;;;;;;36.90;16.73;;;;;;;;;;5103486;28;20459;-68
2021/01/11 06:41:15;;;;;;;34.80;15.60;;;;;;;;;;5101807;28;20450;-69
2021/01/11 06:43:42;;;;;;;32.17;14.60;;;;;;;;;;5106200;27;20489;-68
2021/01/11 06:46:11;;;;;;;39.17;17.17;;;;;;;;;;5109787;27;20533;-68
2021/01/11 06:48:40;;;;;;;38.57;16.87;;;;;;;;;;5101514;27;20872;-69
2021/01/11 06:51:07;;;;;;;35.73;17.67;;;;;;;;;;5107946;28;20531;-70
2021/01/11 06:53:34;;;;;;;35.83;19.30;;;;;;;;;;5105591;28;20459;-70
2021/01/11 06:56:04;;;;;;;35.53;18.40;;;;;;;;;;5109436;27;20469;-68
2021/01/11 06:58:32;;;;;;;37.00;16.17;;;;;;;;;;5114328;27;20459;-68
2021/01/11 07:01:03;;;;;;;36.23;15.50;;;;;;;;;;5100132;27;20840;-68
2021/01/11 07:03:43;;;;;;;33.23;14.67;;;;;;;;;;5103746;27;20458;-68
2021/01/11 07:06:24;;;;;;;37.37;18.60;;;;;;;;;;5101186;28;20439;-68
2021/01/11 07:08:51;;;;;;;42.53;19.80;;;;;;;;;;5113122;27;20475;-68
2021/01/11 07:11:32;;;;;;;37.37;17.70;;;;;;;;;;5101381;28;20456;-68
2021/01/11 07:13:59;;;;;;;38.80;17.60;;;;;;;;;;5107946;27;20450;-68
2021/01/11 07:16:38;;;;;;;37.30;17.07;;;;;;;;;;5108749;27;20447;-69
2021/01/11 07:19:05;;;;;;;36.70;17.20;;;;;;;;;;5103998;27;20486;-68
2021/01/11 07:21:33;;;;;;;37.07;18.90;;;;;;;;;;5105686;27;20487;-68
2021/01/11 07:24:01;;;;;;;36.50;17.90;;;;;;;;;;5103865;27;20458;-68
2021/01/11 07:26:28;;;;;;;29.97;17.23;;;;;;;;;;5104434;27;20451;-68
2021/01/11 07:28:56;;;;;;;37.13;16.63;;;;;;;;;;5101008;27;20490;-67
2021/01/11 07:31:24;;;;;;;36.13;19.70;;;;;;;;;;5108373;27;20455;-67
2021/01/11 07:33:54;;;;;;;42.77;18.43;;;;;;;;;;5100297;27;20946;-68
2021/01/11 07:36:22;;;;;;;36.00;18.00;;;;;;;;;;5106233;28;20467;-68
2021/01/11 07:38:49;;;;;;;39.23;17.33;;;;;;;;;;5103877;27;20523;-68
2021/01/11 07:41:25;;;;;;;38.97;19.03;;;;;;;;;;5101692;28;20458;-68
2021/01/11 07:43:52;;;;;;;44.73;18.80;;;;;;;;;;5095309;27;20454;-68
2021/01/11 07:46:22;;;;;;;32.97;16.80;;;;;;;;;;5108557;27;20451;-68
2021/01/11 07:48:49;;;;;;;37.67;17.00;;;;;;;;;;5103677;27;20484;-68
2021/01/11 07:51:15;;;;;;;34.47;17.60;;;;;;;;;;5109855;27;20438;-68
2021/01/11 07:53:43;;;;;;;34.63;14.70;;;;;;;;;;5107192;27;20448;-68
2021/01/11 07:56:10;;;;;;;33.13;15.80;;;;;;;;;;5102488;28;20514;-68
2021/01/11 07:58:38;;;;;;;42.77;17.23;;;;;;;;;;5104206;28;20472;-68
2021/01/11 08:01:05;;;;;;;37.63;16.80;;;;;;;;;;5103409;28;20512;-68
2021/01/11 08:03:32;;;;;;;38.07;17.00;;;;;;;;;;5102274;27;21513;-68
2021/01/11 08:06:02;;;;;;;45.40;20.20;;;;;;;;;;5111402;27;20451;-68
2021/01/11 08:08:31;;;;;;;40.20;18.63;;;;;;;;;;5102321;28;20975;-68
2021/01/11 08:10:59;;;;;;;37.63;17.90;;;;;;;;;;5102011;28;20935;-68
2021/01/11 08:13:26;;;;;;;41.77;18.47;;;;;;;;;;5094017;28;20494;-68
2021/01/11 08:15:53;;;;;;;38.70;16.37;;;;;;;;;;5104640;28;20462;-68
2021/01/11 08:18:20;;;;;;;31.67;16.40;;;;;;;;;;5101185;28;20489;-68
2021/01/11 08:20:47;;;;;;;34.50;16.53;;;;;;;;;;5105684;28;20916;-68
2021/01/11 08:23:13;;;;;;;33.33;16.30;;;;;;;;;;5102043;28;20457;-68
2021/01/11 08:25:40;;;;;;;36.43;15.70;;;;;;;;;;5108060;28;20462;-68
2021/01/11 08:28:08;;;;;;;39.87;17.17;;;;;;;;;;5104514;28;20847;-69
2021/01/11 08:30:35;;;;;;;32.60;17.47;;;;;;;;;;5103241;28;20887;-69
2021/01/11 08:33:07;;;;;;;33.03;17.00;;;;;;;;;;5102648;27;20464;-68
2021/01/11 08:35:34;;;;;;;35.67;16.73;;;;;;;;;;5110516;28;20455;-68
2021/01/11 08:38:00;;;;;;;37.27;17.30;;;;;;;;;;5109567;27;20466;-68
2021/01/11 08:40:32;;;;;;;27.03;14.67;;;;;;;;;;5108574;27;20447;-68
2021/01/11 08:43:09;;;;;;;30.77;14.90;;;;;;;;;;5109120;28;20459;-69
2021/01/11 08:45:37;;;;;;;33.87;16.60;;;;;;;;;;5107834;27;20451;-68
2021/01/11 08:48:05;;;;;;;25.47;14.10;;;;;;;;;;5107021;28;21055;-68
2021/01/11 08:50:32;;;;;;;32.07;15.30;;;;;;;;;;5108683;27;20463;-68
2021/01/11 08:52:58;;;;;;;31.80;16.17;;;;;;;;;;5110867;27;20516;-69
2021/01/11 08:55:25;;;;;;;33.17;16.57;;;;;;;;;;5106069;27;20459;-68
2021/01/11 08:58:06;;;;;;;35.93;18.00;;;;;;;;;;5111761;27;20470;-68
2021/01/11 09:00:34;;;;;;;39.83;19.23;;;;;;;;;;5103007;27;20482;-69
2021/01/11 09:03:00;;;;;;;40.47;18.00;;;;;;;;;;5107809;27;20472;-68
2021/01/11 09:05:27;;;;;;;37.83;18.90;;;;;;;;;;5109525;27;20439;-68
2021/01/11 09:07:54;;;;;;;28.67;15.60;;;;;;;;;;5116677;27;20989;-68
2021/01/11 09:10:22;;;;;;;33.03;16.40;;;;;;;;;;5114924;27;20488;-68
2021/01/11 09:12:49;;;;;;;36.27;18.97;;;;;;;;;;5105152;28;20469;-68
2021/01/11 09:15:23;;;;;;;31.87;16.67;;;;;;;;;;5112471;27;20446;-68
2021/01/11 09:18:01;;;;;;;35.50;15.37;;;;;;;;;;5106649;27;20495;-68
2021/01/11 09:20:28;;;;;;;38.50;16.80;;;;;;;;;;5108136;27;20501;-68
2021/01/11 09:22:57;;;;;;;37.37;17.50;;;;;;;;;;5104894;28;21046;-68
2021/01/11 09:25:24;;;;;;;37.93;19.20;;;;;;;;;;5104649;27;20455;-68
2021/01/11 09:27:50;;;;;;;40.90;18.77;;;;;;;;;;5116412;27;20473;-68
2021/01/11 09:30:17;;;;;;;38.13;16.67;;;;;;;;;;5112052;27;20526;-69
2021/01/11 09:32:44;;;;;;;44.10;19.47;;;;;;;;;;5105879;27;20460;-69
2021/01/11 09:35:13;;;;;;;32.40;16.70;;;;;;;;;;5110478;27;20443;-68
2021/01/11 09:37:40;;;;;;;36.90;17.90;;;;;;;;;;5112025;27;20450;-69
2021/01/11 09:40:07;;;;;;;31.57;17.93;;;;;;;;;;5105326;27;20439;-69
2021/01/11 09:42:33;;;;;;;33.40;18.00;;;;;;;;;;5107706;27;20463;-69
2021/01/11 09:45:00;;;;;;;30.00;16.97;;;;;;;;;;5113085;27;20455;-69
2021/01/11 09:47:27;;;;;;;31.67;18.00;;;;;;;;;;5114623;27;20562;-69
2021/01/11 09:49:53;;;;;;;38.17;17.73;;;;;;;;;;5108158;27;20482;-69
2021/01/11 09:52:22;;;;;;;25.10;13.90;;;;;;;;;;5111270;27;20451;-70
2021/01/11 09:54:49;;;;;;;28.47;15.53;;;;;;;;;;5103401;28;21179;-69
2021/01/11 09:57:16;;;;;;;28.17;15.20;;;;;;;;;;5108347;28;20443;-69
2021/01/11 09:59:42;;;;;;;39.07;19.50;;;;;;;;;;5105608;27;20475;-69
2021/01/11 10:02:09;;;;;;;25.83;14.00;;;;;;;;;;5106802;27;20496;-70
2021/01/11 10:04:36;;;;;;;30.73;14.40;;;;;;;;;;5103865;27;20466;-69
2021/01/11 10:07:03;;;;;;;25.03;14.40;;;;;;;;;;5107188;27;20495;-68
2021/01/11 10:09:31;;;;;;;31.60;16.43;;;;;;;;;;5110199;27;20490;-69
2021/01/11 10:11:59;;;;;;;32.63;16.23;;;;;;;;;;5102346;27;20455;-69
2021/01/11 10:14:26;;;;;;;32.27;15.50;;;;;;;;;;5105424;28;20443;-69
2021/01/11 10:16:53;;;;;;;27.60;15.30;;;;;;;;;;5108984;27;20520;-69
2021/01/11 10:19:20;;;;;;;31.67;16.50;;;;;;;;;;5102158;27;20480;-68
2021/01/11 10:21:47;;;;;;;23.47;10.97;;;;;;;;;;5107605;27;20450;-68
2021/01/11 10:24:14;;;;;;;26.97;14.77;;;;;;;;;;5110475;27;20451;-69
2021/01/11 10:26:43;;;;;;;26.77;13.70;;;;;;;;;;5100144;27;20466;-69
2021/01/11 10:29:10;;;;;;;30.90;14.97;;;;;;;;;;5112600;27;20486;-69
2021/01/11 10:31:36;;;;;;;38.33;15.87;;;;;;;;;;5104484;27;20459;-69
2021/01/11 10:34:03;;;;;;;33.70;16.17;;;;;;;;;;5106722;27;20451;-68
2021/01/11 10:36:36;;;;;;;31.50;15.93;;;;;;;;;;5106095;27;20458;-69
2021/01/11 10:39:03;;;;;;;28.33;14.60;;;;;;;;;;5105277;27;20455;-69
2021/01/11 10:41:30;;;;;;;33.23;15.63;;;;;;;;;;5104557;28;20451;-69
2021/01/11 10:43:57;;;;;;;28.10;14.60;;;;;;;;;;5105357;28;20443;-69
2021/01/11 10:46:24;;;;;;;26.77;15.90;;;;;;;;;;5102956;27;20462;-68
2021/01/11 10:48:50;;;;;;;29.90;14.93;;;;;;;;;;5106608;27;20490;-68
2021/01/11 10:51:17;;;;;;;25.57;14.63;;;;;;;;;;5104736;27;20462;-68
2021/01/11 10:53:44;;;;;;;24.23;13.03;;;;;;;;;;5102949;27;20462;-70
2021/01/11 10:56:12;;;;;;;31.03;16.40;;;;;;;;;;5101334;28;20459;-69
2021/01/11 10:58:39;;;;;;;27.17;14.23;;;;;;;;;;5102681;28;20990;-69
2021/01/11 11:01:07;;;;;;;22.97;14.10;;;;;;;;;;5101815;27;20463;-69
2021/01/11 11:03:34;;;;;;;23.00;13.80;;;;;;;;;;5103907;28;20847;-69
2021/01/11 11:06:01;;;;;;;28.30;15.07;;;;;;;;;;5101896;27;20480;-70
2021/01/11 11:08:27;;;;;;;27.93;15.80;;;;;;;;;;5106215;28;20463;-69
2021/01/11 11:10:54;;;;;;;21.60;13.20;;;;;;;;;;5104112;27;20951;-69
2021/01/11 11:13:21;;;;;;;27.57;15.97;;;;;;;;;;5100686;28;20464;-69
2021/01/11 11:15:47;;;;;;;28.53;13.03;;;;;;;;;;5101662;27;20538;-69
2021/01/11 11:18:15;;;;;;;29.70;14.13;;;;;;;;;;5099025;27;20475;-69
2021/01/11 11:20:44;;;;;;;22.57;12.20;;;;;;;;;;5112397;27;20470;-70
2021/01/11 11:23:11;;;;;;;23.63;13.03;;;;;;;;;;5099252;28;20459;-69
2021/01/11 11:25:37;;;;;;;31.37;14.60;;;;;;;;;;5101812;28;20447;-71
2021/01/11 11:28:04;;;;;;;21.37;12.00;;;;;;;;;;5096835;28;21096;-69
2021/01/11 11:30:31;;;;;;;26.40;13.70;;;;;;;;;;5103166;27;20544;-70
2021/01/11 11:32:57;;;;;;;26.50;12.93;;;;;;;;;;5097882;27;20460;-69
2021/01/11 11:35:25;;;;;;;29.37;15.73;;;;;;;;;;5108435;27;20455;-69
2021/01/11 11:37:52;;;;;;;29.87;15.03;;;;;;;;;;5099130;28;20842;-71
2021/01/11 11:40:19;;;;;;;29.97;14.47;;;;;;;;;;5111644;27;20441;-69
2021/01/11 11:42:45;;;;;;;24.67;14.63;;;;;;;;;;5105328;27;20447;-70
2021/01/11 11:45:13;;;;;;;28.73;15.23;;;;;;;;;;5103704;28;20447;-69
2021/01/11 11:47:40;;;;;;;34.10;18.23;;;;;;;;;;5104159;27;20443;-70
2021/01/11 11:50:08;;;;;;;24.23;13.80;;;;;;;;;;5103394;27;20476;-70
2021/01/11 11:52:35;;;;;;;25.10;14.70;;;;;;;;;;5108760;27;20451;-70
2021/01/11 11:55:02;;;;;;;30.57;14.77;;;;;;;;;;5102398;28;20513;-69
2021/01/11 11:57:29;;;;;;;26.00;14.43;;;;;;;;;;5107558;27;20440;-70
2021/01/11 11:59:55;;;;;;;22.63;13.27;;;;;;;;;;5105041;28;20470;-68
2021/01/11 12:02:22;;;;;;;24.60;14.20;;;;;;;;;;5105933;27;20463;-69
2021/01/11 12:04:49;;;;;;;26.93;14.77;;;;;;;;;;5106794;28;20482;-69
2021/01/11 12:07:28;;;;;;;24.30;13.97;;;;;;;;;;5118174;27;20463;-70
2021/01/11 12:09:56;;;;;;;33.90;14.30;;;;;;;;;;5099447;28;20472;-70
2021/01/11 12:12:23;;;;;;;28.57;15.13;;;;;;;;;;5102990;28;20953;-70
2021/01/11 12:14:49;;;;;;;23.10;15.13;;;;;;;;;;5098448;28;20443;-69
2021/01/11 12:17:16;;;;;;;25.60;15.43;;;;;;;;;;5103835;28;20463;-69
2021/01/11 12:19:42;;;;;;;24.30;14.57;;;;;;;;;;5098155;28;20470;-70
2021/01/11 12:22:11;;;;;;;26.60;12.90;;;;;;;;;;5104215;28;20456;-70
2021/01/11 12:24:38;;;;;;;28.03;14.30;;;;;;;;;;5107767;28;20500;-69
2021/01/11 12:27:05;;;;;;;31.50;17.27;;;;;;;;;;5106977;28;20459;-69
2021/01/11 12:29:32;;;;;;;22.50;14.10;;;;;;;;;;5107885;27;20474;-69
2021/01/11 12:32:03;;;;;;;28.13;14.37;;;;;;;;;;5109653;28;20451;-69
2021/01/11 12:34:33;;;;;;;26.33;15.60;;;;;;;;;;5105388;28;20449;-69
2021/01/11 12:37:00;;;;;;;26.87;14.30;;;;;;;;;;5113227;28;20462;-70
2021/01/11 12:39:26;;;;;;;24.47;13.20;;;;;;;;;;5103031;28;20494;-70
2021/01/11 12:41:53;;;;;;;25.50;13.20;;;;;;;;;;5098585;28;20914;-69
2021/01/11 12:44:20;;;;;;;24.00;12.70;;;;;;;;;;5106143;28;20439;-70
2021/01/11 12:46:47;;;;;;;32.30;15.33;;;;;;;;;;5097019;28;20493;-70
2021/01/11 12:49:14;;;;;;;25.33;13.17;;;;;;;;;;5109419;28;20487;-69
2021/01/11 12:51:40;;;;;;;22.70;12.73;;;;;;;;;;5106458;28;20460;-69
2021/01/11 12:54:08;;;;;;;26.90;14.00;;;;;;;;;;5105493;28;20812;-70
2021/01/11 12:56:34;;;;;;;26.80;14.57;;;;;;;;;;5110129;28;20450;-70
2021/01/11 12:59:01;;;;;;;29.27;16.30;;;;;;;;;;5104588;28;20466;-70
2021/01/11 13:01:29;;;;;;;30.60;15.80;;;;;;;;;;5103898;27;20448;-70
2021/01/11 13:03:56;;;;;;;21.60;11.50;;;;;;;;;;5101644;28;20834;-69
2021/01/11 13:06:27;;;;;;;28.17;15.40;;;;;;;;;;5111281;28;21027;-70
2021/01/11 13:08:53;;;;;;;24.50;13.43;;;;;;;;;;5096871;28;20482;-70
2021/01/11 13:11:21;;;;;;;28.73;15.30;;;;;;;;;;5105894;28;21126;-70
2021/01/11 13:13:48;;;;;;;26.57;14.73;;;;;;;;;;5112185;27;20467;-69
2021/01/11 13:16:23;;;;;;;24.80;13.67;;;;;;;;;;5097924;27;21349;-70
2021/01/11 13:18:50;;;;;;;32.57;13.80;;;;;;;;;;5106797;27;20466;-70
2021/01/11 13:21:17;;;;;;;27.80;15.47;;;;;;;;;;5104496;28;20471;-70
2021/01/11 13:23:43;;;;;;;25.70;14.47;;;;;;;;;;5102821;27;20456;-70
2021/01/11 13:26:10;;;;;;;31.53;15.23;;;;;;;;;;5111207;27;20521;-70
2021/01/11 13:28:36;;;;;;;30.63;15.80;;;;;;;;;;5110945;27;20482;-69
2021/01/11 13:31:06;;;;;;;33.23;14.80;;;;;;;;;;5109610;27;20459;-69
2021/01/11 13:33:32;;;;;;;26.03;14.97;;;;;;;;;;5105576;27;20467;-69
2021/01/11 13:36:00;;;;;;;29.63;14.37;;;;;;;;;;5103795;28;21171;-69
2021/01/11 13:38:27;;;;;;;28.67;15.17;;;;;;;;;;5102115;27;20483;-70
2021/01/11 13:40:54;;;;;;;28.03;14.43;;;;;;;;;;5107391;27;20447;-69
2021/01/11 13:43:20;;;;;;;24.97;13.73;;;;;;;;;;5112782;27;20473;-70
2021/01/11 13:45:47;;;;;;;28.30;16.50;;;;;;;;;;5109703;28;20443;-70
2021/01/11 13:48:14;;;;;;;21.37;12.67;;;;;;;;;;5101890;27;20559;-69
2021/01/11 13:50:40;;;;;;;28.57;14.93;;;;;;;;;;5095527;27;21007;-69
2021/01/11 13:53:08;;;;;;;27.83;15.63;;;;;;;;;;5093316;22;20494;-79
2021/01/11 13:55:35;;;;;;;29.40;14.17;;;;;;;;;;5067510;28;20448;-79
2021/01/11 13:58:01;;;;;;;27.70;14.57;;;;;;;;;;5067022;28;20452;-81
2021/01/11 14:00:28;;;;;;;26.63;14.43;;;;;;;;;;5067106;28;20453;-82
2021/01/11 14:02:57;;;;;;;26.63;14.80;;;;;;;;;;5059236;28;20481;-82
2021/01/11 14:05:27;;;;;;;27.10;16.00;;;;;;;;;;5050581;28;20953;-83
2021/01/11 14:07:55;;;;;;;23.63;15.27;;;;;;;;;;5048144;28;20506;-82
2021/01/11 14:10:24;;;;;;;24.90;14.80;;;;;;;;;;5050147;28;20486;-81
2021/01/11 14:12:51;;;;;;;22.70;14.27;;;;;;;;;;5055183;28;20486;-82
2021/01/11 14:15:18;;;;;;;27.40;14.80;;;;;;;;;;5054042;28;20449;-83
2021/01/11 14:17:44;;;;;;;32.80;15.20;;;;;;;;;;5056596;28;20453;-82
2021/01/11 14:20:16;;;;;;;32.60;15.33;;;;;;;;;;5056256;28;20445;-81